createdAt,value
2022-09-17T00:01:27.816Z,10.20
2022-09-17T00:03:59.451Z,10.30
2022-09-17T00:06:27.188Z,10.20
2022-09-17T00:08:55.142Z,10.20
2022-09-17T00:11:35.414Z,10.30
2022-09-17T00:14:04.797Z,10.40
2022-09-17T00:16:38.271Z,10.40
2022-09-17T00:19:08.530Z,10.40
2022-09-17T00:21:36.057Z,10.50
2022-09-17T00:24:05.841Z,10.70
2022-09-17T00:26:35.351Z,10.80
2022-09-17T00:29:03.856Z,10.80
2022-09-17T00:31:32.229Z,10.90
2022-09-17T00:34:00.794Z,11.00
2022-09-17T00:36:28.661Z,11.00
2022-09-17T00:38:59.131Z,11.10
2022-09-17T00:41:30.155Z,11.30
2022-09-17T00:43:59.836Z,11.10
2022-09-17T00:46:36.249Z,11.20
2022-09-17T00:49:15.789Z,11.10
2022-09-17T00:52:00.434Z,11.20
2022-09-17T00:54:28.690Z,11.10
2022-09-17T00:56:57.088Z,10.90
2022-09-17T00:59:25.342Z,10.70
2022-09-17T01:01:53.196Z,10.60
2022-09-17T01:04:25.345Z,10.60
2022-09-17T01:07:19.694Z,10.60
2022-09-17T01:10:02.218Z,10.70
2022-09-17T01:12:55.993Z,10.80
2022-09-17T01:15:49.813Z,10.80
2022-09-17T01:18:36.836Z,10.10
2022-09-17T01:21:21.897Z,11.00
2022-09-17T01:24:29.522Z,11.00
2022-09-17T01:27:05.929Z,11.10
2022-09-17T01:29:55.270Z,11.10
2022-09-17T01:32:46.200Z,11.10
2022-09-17T01:35:23.036Z,11.10
2022-09-17T01:38:19.135Z,11.10
2022-09-17T01:41:27.583Z,11.10
2022-09-17T01:44:37.333Z,11.00
2022-09-17T01:47:09.227Z,10.90
2022-09-17T01:49:39.404Z,10.80
2022-09-17T01:52:09.800Z,10.60
2022-09-17T01:54:44.991Z,10.60
2022-09-17T01:57:16.386Z,10.50
2022-09-17T01:59:57.369Z,10.50
2022-09-17T02:02:59.776Z,10.10
2022-09-17T02:05:51.554Z,10.50
2022-09-17T02:08:26.293Z,10.60
2022-09-17T02:11:20.171Z,11.20
2022-09-17T02:13:59.358Z,10.60
2022-09-17T02:16:29.273Z,10.60
2022-09-17T02:19:03.071Z,10.70
2022-09-17T02:21:52.345Z,10.80
2022-09-17T02:24:24.997Z,11.00
2022-09-17T02:27:04.873Z,10.90
2022-09-17T02:29:37.100Z,10.90
2022-09-17T02:32:05.343Z,10.80
2022-09-17T02:34:33.429Z,10.70
2022-09-17T02:37:01.806Z,10.60
2022-09-17T02:39:29.616Z,10.50
2022-09-17T02:42:17.673Z,10.40
2022-09-17T02:45:03.158Z,10.30
2022-09-17T02:47:57.023Z,10.30
2022-09-17T02:50:33.213Z,10.40
2022-09-17T02:53:32.926Z,10.50
2022-09-17T02:56:09.540Z,10.60
2022-09-17T02:58:46.218Z,10.60
2022-09-17T03:01:23.766Z,10.70
2022-09-17T03:03:53.301Z,10.80
2022-09-17T03:06:21.039Z,10.90
2022-09-17T03:08:48.575Z,10.90
2022-09-17T03:11:15.965Z,10.90
2022-09-17T03:13:43.472Z,10.80
2022-09-17T03:16:11.017Z,10.70
2022-09-17T03:18:38.567Z,10.50
2022-09-17T03:21:06.465Z,10.60
2022-09-17T03:23:33.977Z,10.60
2022-09-17T03:26:02.786Z,10.50
2022-09-17T03:28:30.126Z,10.40
2022-09-17T03:30:57.647Z,10.40
2022-09-17T03:33:25.279Z,10.40
2022-09-17T03:35:52.975Z,10.40
2022-09-17T03:38:20.442Z,10.40
2022-09-17T03:40:58.369Z,10.00
2022-09-17T03:43:25.909Z,10.70
2022-09-17T03:45:53.553Z,10.80
2022-09-17T03:48:21.140Z,10.80
2022-09-17T03:50:48.980Z,10.60
2022-09-17T03:53:16.663Z,10.90
2022-09-17T03:55:47.543Z,11.00
2022-09-17T03:58:14.861Z,11.00
2022-09-17T04:00:43.651Z,11.00
2022-09-17T04:03:11.056Z,10.90
2022-09-17T04:05:38.426Z,10.70
2022-09-17T04:08:05.866Z,10.80
2022-09-17T04:10:33.252Z,10.80
2022-09-17T04:13:00.724Z,10.90
2022-09-17T04:15:28.107Z,10.80
2022-09-17T04:17:58.040Z,10.70
2022-09-17T04:20:25.600Z,10.70
2022-09-17T04:22:53.752Z,10.80
2022-09-17T04:25:21.231Z,10.80
2022-09-17T04:27:48.711Z,10.80
2022-09-17T04:30:16.569Z,10.70
2022-09-17T04:32:45.110Z,10.40
2022-09-17T04:35:13.182Z,10.40
2022-09-17T04:37:40.966Z,10.30
2022-09-17T04:40:09.110Z,10.30
2022-09-17T04:42:36.644Z,10.30
2022-09-17T04:45:04.281Z,11.20
2022-09-17T04:47:31.647Z,10.30
2022-09-17T04:49:59.087Z,11.10
2022-09-17T04:52:30.330Z,10.20
2022-09-17T04:54:58.614Z,10.30
2022-09-17T04:57:27.274Z,10.20
2022-09-17T04:59:54.650Z,10.30
2022-09-17T05:02:22.612Z,10.30
2022-09-17T05:04:50.838Z,10.30
2022-09-17T05:07:18.411Z,10.10
2022-09-17T05:09:45.929Z,10.30
2022-09-17T05:12:13.414Z,10.30
2022-09-17T05:14:40.852Z,10.40
2022-09-17T05:17:08.342Z,10.50
2022-09-17T05:19:35.727Z,10.60
2022-09-17T05:22:03.648Z,10.70
2022-09-17T05:24:31.288Z,10.70
2022-09-17T05:26:58.840Z,10.70
2022-09-17T05:29:26.190Z,10.70
2022-09-17T05:31:53.796Z,10.60
2022-09-17T05:34:21.281Z,10.70
2022-09-17T05:36:49.445Z,10.70
2022-09-17T05:39:17.537Z,10.70
2022-09-17T05:41:44.865Z,10.70
2022-09-17T05:44:17.332Z,10.70
2022-09-17T05:46:46.408Z,10.80
2022-09-17T05:49:15.380Z,10.80
2022-09-17T05:51:43.028Z,10.90
2022-09-17T05:54:10.501Z,10.90
2022-09-17T05:56:37.939Z,10.90
2022-09-17T05:59:05.306Z,10.90
2022-09-17T06:01:33.000Z,10.90
2022-09-17T06:04:02.996Z,11.00
2022-09-17T06:06:31.157Z,11.00
2022-09-17T06:09:01.761Z,11.00
2022-09-17T06:11:29.135Z,11.00
2022-09-17T06:13:56.975Z,11.00
2022-09-17T06:16:25.175Z,11.10
2022-09-17T06:18:55.433Z,11.10
2022-09-17T06:21:23.403Z,11.10
2022-09-17T06:23:51.554Z,11.20
2022-09-17T06:26:19.292Z,11.00
2022-09-17T06:28:46.957Z,11.30
2022-09-17T06:31:14.592Z,10.40
2022-09-17T06:33:41.984Z,11.40
2022-09-17T06:36:14.075Z,11.50
2022-09-17T06:38:42.613Z,11.60
2022-09-17T06:41:12.639Z,11.80
2022-09-17T06:43:40.148Z,11.90
2022-09-17T06:46:09.525Z,12.00
2022-09-17T06:48:37.689Z,12.10
2022-09-17T06:51:11.178Z,12.20
2022-09-17T06:53:39.531Z,12.30
2022-09-17T06:56:08.851Z,12.50
2022-09-17T06:58:42.099Z,12.50
2022-09-17T07:01:10.854Z,12.50
2022-09-17T07:03:38.733Z,12.70
2022-09-17T07:06:10.317Z,12.70
2022-09-17T07:08:38.544Z,12.90
2022-09-17T07:11:06.129Z,13.00
2022-09-17T07:13:34.042Z,13.10
2022-09-17T07:16:03.493Z,13.20
2022-09-17T07:18:31.197Z,13.20
2022-09-17T07:21:05.658Z,13.10
2022-09-17T07:23:35.666Z,13.00
2022-09-17T07:26:08.572Z,12.90
2022-09-17T07:28:39.630Z,12.80
2022-09-17T07:31:10.210Z,12.80
2022-09-17T07:33:40.824Z,12.80
2022-09-17T07:36:11.945Z,12.80
2022-09-17T07:38:40.560Z,12.70
2022-09-17T07:41:14.654Z,12.70
2022-09-17T07:43:43.697Z,12.70
2022-09-17T07:46:19.994Z,12.90
2022-09-17T07:48:48.731Z,13.00
2022-09-17T07:51:25.087Z,13.00
2022-09-17T07:53:58.118Z,13.10
2022-09-17T07:56:27.086Z,13.20
2022-09-17T07:58:55.091Z,13.30
2022-09-17T08:01:23.446Z,13.40
2022-09-17T08:03:52.831Z,13.30
2022-09-17T08:06:23.525Z,13.30
2022-09-17T08:08:51.520Z,13.30
2022-09-17T08:11:44.572Z,13.40
2022-09-17T08:14:12.997Z,13.50
2022-09-17T08:16:40.856Z,13.50
2022-09-17T08:19:11.092Z,13.50
2022-09-17T08:21:38.993Z,13.50
2022-09-17T08:24:06.667Z,13.60
2022-09-17T08:26:34.260Z,13.60
2022-09-17T08:29:01.783Z,13.50
2022-09-17T08:31:30.863Z,13.40
2022-09-17T08:33:58.429Z,13.40
2022-09-17T08:36:27.103Z,13.40
2022-09-17T08:38:57.472Z,13.30
2022-09-17T08:41:51.731Z,13.40
2022-09-17T08:44:30.788Z,13.50
2022-09-17T08:47:08.020Z,13.50
2022-09-17T08:49:49.761Z,13.40
2022-09-17T08:52:47.553Z,13.40
2022-09-17T08:55:37.841Z,13.30
2022-09-17T08:58:38.109Z,13.10
2022-09-17T09:01:14.650Z,12.80
2022-09-17T09:03:51.876Z,12.90
2022-09-17T09:06:27.344Z,12.90
2022-09-17T09:09:04.197Z,12.90
2022-09-17T09:11:33.519Z,12.90
2022-09-17T09:14:27.247Z,12.90
2022-09-17T09:16:56.777Z,12.90
2022-09-17T09:19:27.369Z,12.90
2022-09-17T09:22:31.479Z,13.00
2022-09-17T09:25:23.372Z,13.00
2022-09-17T09:28:05.463Z,13.10
2022-09-17T09:30:51.188Z,13.10
2022-09-17T09:33:32.380Z,13.10
2022-09-17T09:36:00.167Z,13.20
2022-09-17T09:38:43.655Z,13.20
2022-09-17T09:41:36.838Z,13.20
2022-09-17T09:44:09.513Z,13.20
2022-09-17T09:47:02.164Z,13.30
2022-09-17T09:50:08.342Z,13.30
2022-09-17T09:52:38.583Z,13.40
2022-09-17T09:55:22.294Z,13.40
2022-09-17T09:57:59.045Z,13.50
2022-09-17T10:00:35.810Z,13.60
2022-09-17T10:03:33.636Z,13.80
2022-09-17T10:06:08.086Z,13.90
2022-09-17T10:08:37.956Z,14.00
2022-09-17T10:11:19.201Z,14.10
2022-09-17T10:13:46.755Z,14.30
2022-09-17T10:16:25.548Z,14.50
2022-09-17T10:19:14.820Z,14.70
2022-09-17T10:21:43.754Z,15.00
2022-09-17T10:24:27.261Z,15.20
2022-09-17T10:27:08.046Z,15.90
2022-09-17T10:29:35.553Z,16.60
2022-09-17T10:32:07.125Z,16.50
2022-09-17T10:34:35.004Z,16.40
2022-09-17T10:37:02.536Z,16.30
2022-09-17T10:39:49.023Z,16.10
2022-09-17T10:42:20.036Z,15.90
2022-09-17T10:44:53.505Z,15.90
2022-09-17T10:47:29.797Z,16.20
2022-09-17T10:50:01.899Z,16.50
2022-09-17T10:52:34.402Z,17.10
2022-09-17T10:55:26.962Z,17.40
2022-09-17T10:58:07.765Z,17.40
2022-09-17T11:00:50.583Z,17.60
2022-09-17T11:03:30.096Z,17.80
2022-09-17T11:06:15.555Z,18.40
2022-09-17T11:09:01.560Z,18.70
2022-09-17T11:11:58.787Z,19.10
2022-09-17T11:14:38.872Z,19.10
2022-09-17T11:17:23.549Z,18.80
2022-09-17T11:20:21.696Z,18.90
2022-09-17T11:23:11.556Z,19.00
2022-09-17T11:26:07.454Z,19.20
2022-09-17T11:28:59.371Z,19.30
2022-09-17T11:31:50.002Z,19.80
2022-09-17T11:34:35.623Z,20.30
2022-09-17T11:37:10.633Z,20.20
2022-09-17T11:40:02.348Z,19.80
2022-09-17T11:42:36.693Z,19.50
2022-09-17T11:45:31.205Z,19.30
2022-09-17T11:48:16.568Z,18.80
2022-09-17T11:50:46.674Z,18.40
2022-09-17T11:53:40.833Z,17.90
2022-09-17T11:56:16.815Z,17.50
2022-09-17T11:58:44.281Z,17.20
2022-09-17T12:01:19.300Z,16.90
2022-09-17T12:04:01.548Z,16.60
2022-09-17T12:06:49.637Z,16.50
2022-09-17T12:09:22.216Z,16.60
2022-09-17T12:12:08.034Z,16.60
2022-09-17T12:15:26.069Z,16.50
2022-09-17T12:18:34.833Z,16.00
2022-09-17T12:21:05.635Z,15.80
2022-09-17T12:23:33.181Z,15.80
2022-09-17T12:26:31.462Z,15.60
2022-09-17T12:29:17.817Z,15.10
2022-09-17T12:31:57.847Z,15.40
2022-09-17T12:34:49.827Z,15.00
2022-09-17T12:37:28.878Z,14.90
2022-09-17T12:40:05.329Z,14.90
2022-09-17T12:42:41.594Z,14.90
2022-09-17T12:45:52.858Z,14.80
2022-09-17T12:48:48.602Z,14.70
2022-09-17T12:51:34.950Z,14.60
2022-09-17T12:54:16.988Z,14.50
2022-09-17T12:57:11.807Z,14.50
2022-09-17T13:00:07.732Z,14.50
2022-09-17T13:02:46.710Z,14.50
2022-09-17T13:05:39.240Z,14.50
2022-09-17T13:08:14.853Z,14.50
2022-09-17T13:11:01.018Z,14.50
2022-09-17T13:13:37.646Z,14.40
2022-09-17T13:16:19.953Z,14.50
2022-09-17T13:19:14.664Z,14.50
2022-09-17T13:21:56.003Z,14.50
2022-09-17T13:24:27.296Z,14.50
2022-09-17T13:26:55.966Z,14.60
2022-09-17T13:30:02.505Z,14.60
2022-09-17T13:32:33.153Z,14.60
2022-09-17T13:35:10.814Z,14.60
2022-09-17T13:37:42.942Z,14.70
2022-09-17T13:40:32.894Z,14.70
2022-09-17T13:43:02.965Z,14.60
2022-09-17T13:45:31.738Z,14.60
2022-09-17T13:48:03.097Z,14.70
2022-09-17T13:50:39.135Z,14.70
2022-09-17T13:53:15.172Z,14.70
2022-09-17T13:55:50.174Z,14.70
2022-09-17T13:58:23.029Z,14.70
2022-09-17T14:00:59.987Z,14.60
2022-09-17T14:03:44.599Z,14.50
2022-09-17T14:06:12.238Z,14.50
2022-09-17T14:08:47.137Z,14.40
2022-09-17T14:11:24.147Z,14.40
2022-09-17T14:14:18.629Z,14.40
2022-09-17T14:16:50.405Z,14.50
2022-09-17T14:19:30.144Z,14.40
2022-09-17T14:22:16.350Z,14.40
2022-09-17T14:24:44.904Z,14.40
2022-09-17T14:27:43.944Z,14.40
2022-09-17T14:30:20.255Z,14.30
2022-09-17T14:33:02.109Z,14.50
2022-09-17T14:35:52.084Z,14.50
2022-09-17T14:38:45.043Z,14.60
2022-09-17T14:41:12.526Z,14.60
2022-09-17T14:43:49.451Z,14.60
2022-09-17T14:46:38.868Z,14.50
2022-09-17T14:49:21.431Z,14.60
2022-09-17T14:51:50.100Z,14.60
2022-09-17T14:54:28.271Z,14.60
2022-09-17T14:57:04.064Z,14.70
2022-09-17T14:59:34.498Z,14.70
2022-09-17T15:02:02.141Z,14.70
2022-09-17T15:04:29.866Z,14.80
2022-09-17T15:07:12.868Z,14.70
2022-09-17T15:09:40.617Z,14.70
2022-09-17T15:12:08.421Z,14.70
2022-09-17T15:14:40.040Z,14.50
2022-09-17T15:17:13.803Z,14.50
2022-09-17T15:19:45.804Z,14.50
2022-09-17T15:22:18.248Z,14.50
2022-09-17T15:24:50.495Z,14.30
2022-09-17T15:27:45.612Z,14.10
2022-09-17T15:30:22.083Z,14.10
2022-09-17T15:32:59.442Z,14.10
2022-09-17T15:35:33.997Z,14.10
2022-09-17T15:38:24.005Z,14.00
2022-09-17T15:40:52.578Z,13.80
2022-09-17T15:43:27.313Z,13.80
2022-09-17T15:45:55.589Z,13.80
2022-09-17T15:48:29.283Z,13.80
2022-09-17T15:50:59.711Z,13.80
2022-09-17T15:53:32.717Z,13.80
2022-09-17T15:56:17.076Z,13.90
2022-09-17T15:58:48.106Z,14.10
2022-09-17T16:01:15.512Z,14.10
2022-09-17T16:03:45.600Z,14.20
2022-09-17T16:06:19.240Z,14.00
2022-09-17T16:08:58.170Z,14.20
2022-09-17T16:11:30.126Z,14.20
2022-09-17T16:14:00.039Z,14.20
2022-09-17T16:16:35.443Z,14.10
2022-09-17T16:19:06.900Z,14.00
2022-09-17T16:21:34.491Z,13.70
2022-09-17T16:24:02.196Z,13.50
2022-09-17T16:26:32.636Z,12.90
2022-09-17T16:29:05.427Z,12.00
2022-09-17T16:31:34.323Z,11.80
2022-09-17T16:34:02.043Z,11.90
2022-09-17T16:36:32.219Z,11.90
2022-09-17T16:39:00.093Z,11.90
2022-09-17T16:41:27.684Z,11.90
2022-09-17T16:43:55.283Z,11.90
2022-09-17T16:46:22.715Z,11.90
2022-09-17T16:48:51.054Z,11.90
2022-09-17T16:51:18.700Z,12.10
2022-09-17T16:53:46.431Z,11.80
2022-09-17T16:56:15.167Z,11.80
2022-09-17T16:58:43.041Z,12.20
2022-09-17T17:01:12.484Z,11.60
2022-09-17T17:03:40.846Z,11.50
2022-09-17T17:06:16.943Z,11.50
2022-09-17T17:08:44.766Z,11.40
2022-09-17T17:11:12.749Z,10.40
2022-09-17T17:13:41.924Z,11.30
2022-09-17T17:16:11.907Z,11.20
2022-09-17T17:18:42.233Z,11.20
2022-09-17T17:21:11.454Z,11.30
2022-09-17T17:23:38.882Z,11.30
2022-09-17T17:26:06.767Z,11.30
2022-09-17T17:28:36.657Z,11.30
2022-09-17T17:31:07.047Z,11.30
2022-09-17T17:33:35.137Z,11.30
2022-09-17T17:36:08.106Z,11.30
2022-09-17T17:38:36.804Z,11.30
2022-09-17T17:41:04.537Z,11.30
2022-09-17T17:43:32.004Z,11.20
2022-09-17T17:46:00.816Z,11.10
2022-09-17T17:48:28.848Z,11.00
2022-09-17T17:51:05.589Z,10.90
2022-09-17T17:53:33.291Z,10.80
2022-09-17T17:56:03.884Z,10.80
2022-09-17T17:58:31.840Z,10.90
2022-09-17T18:01:00.341Z,10.80
2022-09-17T18:03:28.853Z,10.80
2022-09-17T18:05:58.995Z,10.80
2022-09-17T18:08:26.804Z,10.80
2022-09-17T18:11:03.626Z,10.80
2022-09-17T18:13:31.776Z,10.80
2022-09-17T18:16:01.330Z,10.70
2022-09-17T18:18:42.181Z,10.70
2022-09-17T18:21:16.045Z,10.60
2022-09-17T18:23:44.326Z,10.60
2022-09-17T18:26:17.468Z,10.60
2022-09-17T18:28:45.597Z,10.60
2022-09-17T18:31:24.135Z,10.60
2022-09-17T18:33:58.318Z,10.50
2022-09-17T18:36:27.474Z,10.50
2022-09-17T18:39:24.204Z,10.40
2022-09-17T18:41:51.021Z,10.40
2022-09-17T18:44:21.927Z,10.30
2022-09-17T18:46:51.395Z,10.20
2022-09-17T18:49:19.198Z,10.20
2022-09-17T18:51:46.665Z,10.20
2022-09-17T18:54:14.153Z,10.20
2022-09-17T18:56:42.359Z,10.90
2022-09-17T18:59:10.411Z,10.10
2022-09-17T19:01:38.388Z,10.00
2022-09-17T19:04:07.902Z,10.00
2022-09-17T19:06:36.083Z,11.10
2022-09-17T19:09:05.268Z,10.00
2022-09-17T19:11:35.729Z,10.00
2022-09-17T19:14:03.283Z,10.00
2022-09-17T19:16:31.114Z,10.50
2022-09-17T19:18:58.719Z,10.00
2022-09-17T19:21:27.428Z,10.00
2022-09-17T19:23:54.883Z,10.00
2022-09-17T19:26:25.184Z,10.00
2022-09-17T19:28:53.849Z,10.00
2022-09-17T19:31:22.401Z,9.90
2022-09-17T19:33:51.913Z,9.90
2022-09-17T19:36:21.136Z,9.90
2022-09-17T19:38:49.258Z,9.90
2022-09-17T19:41:19.571Z,9.80
2022-09-17T19:43:47.628Z,10.00
2022-09-17T19:46:18.077Z,9.80
2022-09-17T19:48:48.003Z,9.70
2022-09-17T19:51:16.838Z,9.70
2022-09-17T19:53:44.418Z,9.70
2022-09-17T19:56:17.200Z,9.60
2022-09-17T19:58:45.470Z,9.60
2022-09-17T20:01:13.298Z,9.90
2022-09-17T20:03:42.553Z,9.70
2022-09-17T20:06:12.474Z,9.70
2022-09-17T20:08:47.631Z,9.70
2022-09-17T20:11:16.040Z,9.70
2022-09-17T20:13:43.886Z,9.60
2022-09-17T20:16:20.604Z,9.60
2022-09-17T20:18:49.158Z,9.60
2022-09-17T20:21:19.423Z,9.60
2022-09-17T20:23:47.100Z,9.60
2022-09-17T20:26:15.226Z,9.60
2022-09-17T20:28:43.187Z,9.60
2022-09-17T20:31:16.536Z,9.60
2022-09-17T20:33:44.320Z,9.60
2022-09-17T20:36:17.197Z,9.60
2022-09-17T20:41:34.577Z,9.60
2022-09-17T20:44:02.445Z,9.60
2022-09-17T20:46:30.078Z,9.60
2022-09-17T20:48:58.657Z,9.70
2022-09-17T20:51:29.347Z,10.00
2022-09-17T20:53:57.918Z,9.80
2022-09-17T20:56:28.258Z,9.80
2022-09-17T20:59:08.283Z,9.90
2022-09-17T21:01:37.891Z,9.90
2022-09-17T21:04:07.605Z,9.90
2022-09-17T21:06:37.527Z,9.90
2022-09-17T21:09:06.620Z,9.90
2022-09-17T21:11:34.907Z,10.00
2022-09-17T21:14:02.634Z,10.00
2022-09-17T21:16:30.842Z,10.00
2022-09-17T21:19:01.754Z,9.60
2022-09-17T21:21:30.141Z,10.00
2022-09-17T21:24:02.618Z,10.00
2022-09-17T21:26:30.676Z,9.90
2022-09-17T21:28:58.572Z,9.90
2022-09-17T21:31:32.300Z,9.80
2022-09-17T21:34:06.254Z,9.80
2022-09-17T21:36:37.496Z,9.90
2022-09-17T21:39:10.301Z,9.80
2022-09-17T21:41:42.361Z,9.80
2022-09-17T21:44:11.906Z,9.80
2022-09-17T21:46:41.206Z,9.80
2022-09-17T21:49:09.158Z,9.90
2022-09-17T21:51:43.704Z,9.90
2022-09-17T21:54:16.949Z,9.80
2022-09-17T21:56:45.810Z,9.80
2022-09-17T21:59:15.652Z,9.80
2022-09-17T22:01:47.045Z,9.70
2022-09-17T22:04:20.502Z,9.70
2022-09-17T22:06:50.047Z,9.70
2022-09-17T22:09:25.941Z,9.70
2022-09-17T22:11:54.249Z,9.70
2022-09-17T22:14:23.630Z,9.60
2022-09-17T22:16:53.675Z,9.60
2022-09-17T22:19:23.278Z,9.60
2022-09-17T22:21:53.139Z,9.60
2022-09-17T22:24:21.877Z,9.60
2022-09-17T22:26:56.493Z,9.60
2022-09-17T22:29:26.570Z,9.50
2022-09-17T22:31:54.367Z,9.50
2022-09-17T22:34:23.550Z,9.50
2022-09-17T22:36:51.265Z,9.50
2022-09-17T22:39:21.524Z,9.50
2022-09-17T22:41:50.472Z,9.50
2022-09-17T22:44:19.817Z,9.50
2022-09-17T22:46:49.434Z,9.50
2022-09-17T22:49:17.967Z,9.50
2022-09-17T22:51:47.518Z,9.50
2022-09-17T22:54:17.763Z,9.40
2022-09-17T22:56:46.739Z,9.40
2022-09-17T22:59:14.493Z,9.40
2022-09-17T23:01:42.502Z,9.30
2022-09-17T23:04:10.128Z,9.30
2022-09-17T23:06:42.450Z,9.30
2022-09-17T23:09:11.876Z,9.30
2022-09-17T23:11:39.978Z,9.20
2022-09-17T23:14:10.339Z,9.20
2022-09-17T23:16:44.203Z,9.20
2022-09-17T23:19:12.515Z,9.20
2022-09-17T23:21:40.655Z,9.20
2022-09-17T23:24:09.261Z,9.20
2022-09-17T23:26:36.855Z,9.30
2022-09-17T23:29:05.836Z,9.20
2022-09-17T23:31:35.493Z,9.30
2022-09-17T23:34:05.114Z,9.20
2022-09-17T23:36:37.205Z,9.20
2022-09-17T23:39:06.754Z,9.20
2022-09-17T23:41:40.247Z,9.30
2022-09-17T23:44:14.907Z,9.40
2022-09-17T23:46:44.694Z,9.40
2022-09-17T23:49:13.670Z,9.40
2022-09-17T23:51:41.960Z,9.40
2022-09-17T23:54:10.292Z,9.40
2022-09-17T23:56:37.805Z,9.40
2022-09-17T23:59:05.660Z,9.30
